Florania, Brazil
Current Conditions -  °F | °C
As of 8:00 AM on Wednesday 26 Nov 2014 (Local Time) from SBMS Reporting Station
Scattered Clouds Scattered Clouds  
Wind Chill: 86°   Ceiling: Unl
Heat Index: 89°   Visibility: 6mi
Dew Point: 68°   Wind: 12mph
Humidity: 55%   Direction: 110°ESE
Pressure: 29.91"   Gusts: NA
Location:  6.13°S, 36.82°W
Report Text: SBMS 261100Z 11010KT 9999 SCT025 30/20 Q1013
Loading
Personal Weather Stations






























Interactive Weather Map New forecast layout! Learn more

10-Day Weather Forecast

Advertisements
Track Severe Weather on mobile